createdAt,value
2018-05-13T00:02:12.055Z,65.51
2018-05-13T00:06:14.547Z,65.42
2018-05-13T00:10:17.044Z,65.21
2018-05-13T00:14:19.542Z,64.98
2018-05-13T00:18:22.008Z,65.10
2018-05-13T00:22:24.499Z,65.32
2018-05-13T00:26:26.999Z,65.26
2018-05-13T00:30:29.462Z,65.28
2018-05-13T00:34:31.937Z,64.94
2018-05-13T00:38:34.429Z,65.31
2018-05-13T00:42:36.916Z,65.49
2018-05-13T00:46:39.416Z,65.51
2018-05-13T00:50:41.944Z,65.42
2018-05-13T00:54:54.100Z,65.52
2018-05-13T00:58:56.590Z,65.63
2018-05-13T01:02:59.086Z,65.94
2018-05-13T01:07:01.548Z,66.12
2018-05-13T01:11:04.038Z,66.21
2018-05-13T01:15:06.530Z,66.21
2018-05-13T01:19:08.988Z,66.30
2018-05-13T01:23:11.472Z,66.20
2018-05-13T01:27:13.997Z,66.24
2018-05-13T01:31:16.470Z,66.40
2018-05-13T01:35:18.934Z,66.46
2018-05-13T01:39:21.424Z,66.70
2018-05-13T01:43:23.918Z,66.81
2018-05-13T01:47:26.416Z,66.79
2018-05-13T01:51:28.889Z,66.85
2018-05-13T01:55:31.373Z,66.77
2018-05-13T01:59:33.871Z,66.99
2018-05-13T02:03:36.352Z,67.09
2018-05-13T02:07:38.860Z,67.11
2018-05-13T02:11:41.343Z,67.15
2018-05-13T02:15:43.826Z,67.18
2018-05-13T02:19:46.317Z,67.37
2018-05-13T02:23:48.814Z,67.35
2018-05-13T02:27:51.292Z,67.42
2018-05-13T02:31:53.783Z,67.35
2018-05-13T02:35:56.272Z,67.47
2018-05-13T02:39:58.767Z,67.53
2018-05-13T02:44:01.238Z,67.40
2018-05-13T02:48:03.732Z,67.29
2018-05-13T02:52:06.242Z,67.30
2018-05-13T02:56:08.699Z,67.37
2018-05-13T03:00:13.121Z,67.45
2018-05-13T03:04:15.589Z,67.64
2018-05-13T03:08:18.088Z,67.69
2018-05-13T03:12:20.565Z,67.62
2018-05-13T03:16:23.064Z,67.47
2018-05-13T03:20:26.487Z,67.62
2018-05-13T03:24:28.948Z,67.68
2018-05-13T03:28:31.431Z,67.68
2018-05-13T03:32:33.921Z,67.81
2018-05-13T03:36:36.384Z,67.70
2018-05-13T03:40:38.902Z,67.87
2018-05-13T03:44:41.375Z,68.00
2018-05-13T03:48:43.865Z,68.17
2018-05-13T03:52:46.350Z,68.41
2018-05-13T03:56:48.837Z,68.67
2018-05-13T04:00:51.337Z,68.77
2018-05-13T04:04:53.850Z,68.99
2018-05-13T04:09:08.270Z,69.29
2018-05-13T04:13:22.618Z,69.41
2018-05-13T04:17:25.106Z,69.42
2018-05-13T04:21:27.611Z,69.41
2018-05-13T04:25:30.073Z,69.37
2018-05-13T04:29:32.639Z,69.37
2018-05-13T04:33:35.080Z,69.62
2018-05-13T04:37:37.557Z,69.73
2018-05-13T04:41:40.027Z,69.77
2018-05-13T04:45:42.516Z,69.72
2018-05-13T04:49:44.997Z,69.46
2018-05-13T04:53:47.482Z,69.14
2018-05-13T04:57:49.948Z,68.92
2018-05-13T05:01:52.436Z,69.10
2018-05-13T05:05:54.919Z,68.54
2018-05-13T05:09:57.419Z,68.37
2018-05-13T05:13:59.913Z,68.79
2018-05-13T05:18:02.399Z,68.80
2018-05-13T05:22:04.913Z,69.00
2018-05-13T05:26:07.382Z,68.71
2018-05-13T05:30:09.866Z,68.46
2018-05-13T05:34:12.352Z,68.31
2018-05-13T05:38:14.832Z,67.89
2018-05-13T05:42:17.299Z,67.23
2018-05-13T05:46:19.791Z,66.06
2018-05-13T05:50:22.289Z,64.99
2018-05-13T05:54:24.758Z,64.16
2018-05-13T05:58:27.253Z,62.89
2018-05-13T06:02:29.716Z,62.38
2018-05-13T06:06:32.203Z,60.80
2018-05-13T06:10:35.629Z,59.91
2018-05-13T06:14:38.117Z,58.57
2018-05-13T06:18:40.595Z,57.46
2018-05-13T06:22:43.083Z,56.01
2018-05-13T06:26:45.585Z,56.43
2018-05-13T06:30:48.991Z,54.34
2018-05-13T06:34:51.495Z,53.49
2018-05-13T06:38:53.960Z,53.60
2018-05-13T06:42:56.441Z,53.83
2018-05-13T06:46:58.922Z,53.14
2018-05-13T06:51:01.540Z,52.13
2018-05-13T06:55:03.907Z,51.13
2018-05-13T06:59:06.396Z,49.37
2018-05-13T07:03:08.888Z,47.96
2018-05-13T07:07:11.383Z,48.54
2018-05-13T07:11:13.836Z,48.10
2018-05-13T07:15:16.314Z,46.30
2018-05-13T07:19:18.797Z,45.62
2018-05-13T07:23:21.255Z,44.97
2018-05-13T07:27:23.742Z,45.01
2018-05-13T07:31:26.237Z,44.11
2018-05-13T07:35:28.713Z,44.49
2018-05-13T07:39:31.191Z,42.55
2018-05-13T07:43:33.668Z,43.33
2018-05-13T07:47:36.162Z,42.94
2018-05-13T07:51:38.616Z,43.41
2018-05-13T07:55:41.096Z,41.68
2018-05-13T07:59:43.567Z,41.42
2018-05-13T08:03:46.044Z,41.86
2018-05-13T08:07:48.562Z,41.25
2018-05-13T08:11:51.074Z,41.01
2018-05-13T08:15:53.521Z,40.79
2018-05-13T08:19:55.999Z,40.22
2018-05-13T08:23:58.477Z,40.41
2018-05-13T08:28:00.934Z,40.57
2018-05-13T08:32:03.411Z,40.64
2018-05-13T08:36:05.901Z,39.43
2018-05-13T08:40:08.361Z,38.46
2018-05-13T08:44:10.860Z,38.56
2018-05-13T08:48:13.351Z,38.32
2018-05-13T08:52:15.829Z,37.46
2018-05-13T08:56:18.316Z,37.76
2018-05-13T09:00:20.808Z,37.03
2018-05-13T09:04:23.293Z,37.24
2018-05-13T09:08:25.827Z,36.61
2018-05-13T09:12:28.309Z,36.89
2018-05-13T09:16:30.800Z,36.56
2018-05-13T09:20:33.342Z,36.70
2018-05-13T09:24:41.669Z,36.88
2018-05-13T09:28:44.131Z,36.32
2018-05-13T09:32:46.618Z,36.22
2018-05-13T09:36:49.108Z,36.04
2018-05-13T09:40:51.559Z,36.77
2018-05-13T09:44:54.054Z,35.66
2018-05-13T09:48:56.507Z,35.82
2018-05-13T09:52:58.988Z,35.49
2018-05-13T09:57:01.459Z,35.56
2018-05-13T10:01:03.952Z,35.95
2018-05-13T10:05:06.441Z,35.71
2018-05-13T10:09:08.939Z,35.96
2018-05-13T10:13:11.399Z,35.75
2018-05-13T10:17:13.887Z,35.68
2018-05-13T10:21:16.349Z,35.08
2018-05-13T10:25:18.851Z,35.05
2018-05-13T10:29:21.352Z,34.95
2018-05-13T10:33:23.831Z,35.13
2018-05-13T10:37:26.320Z,35.45
2018-05-13T10:41:28.820Z,35.27
2018-05-13T10:45:31.321Z,34.83
2018-05-13T10:49:33.791Z,35.31
2018-05-13T10:53:36.279Z,35.20
2018-05-13T10:57:38.802Z,36.38
2018-05-13T11:01:41.275Z,35.79
2018-05-13T11:05:43.750Z,35.53
2018-05-13T11:09:46.238Z,35.50
2018-05-13T11:13:48.738Z,35.11
2018-05-13T11:17:51.200Z,35.08
2018-05-13T11:21:53.695Z,35.77
2018-05-13T11:25:56.190Z,35.32
2018-05-13T11:29:58.706Z,35.35
2018-05-13T11:34:01.188Z,35.48
2018-05-13T11:38:03.675Z,36.10
2018-05-13T11:42:06.162Z,35.01
2018-05-13T11:46:08.651Z,35.93
2018-05-13T11:50:11.119Z,35.12
2018-05-13T11:54:13.623Z,34.28
2018-05-13T11:58:16.095Z,34.12
2018-05-13T12:02:18.580Z,34.78
2018-05-13T12:06:21.068Z,35.00
2018-05-13T12:10:23.539Z,35.04
2018-05-13T12:14:26.035Z,34.66
2018-05-13T12:18:28.521Z,34.46
2018-05-13T12:22:30.993Z,34.41
2018-05-13T12:26:33.509Z,34.07
2018-05-13T12:30:35.986Z,34.79
2018-05-13T12:34:38.447Z,34.37
2018-05-13T12:38:40.955Z,34.36
2018-05-13T12:42:43.468Z,34.44
2018-05-13T12:46:45.946Z,33.99
2018-05-13T12:50:48.403Z,34.33
2018-05-13T12:54:50.894Z,34.31
2018-05-13T12:58:53.375Z,33.91
2018-05-13T13:02:55.872Z,34.17
2018-05-13T13:06:58.318Z,34.03
2018-05-13T13:11:00.812Z,34.40
2018-05-13T13:15:03.293Z,33.42
2018-05-13T13:19:05.783Z,34.32
2018-05-13T13:23:08.237Z,34.60
2018-05-13T13:27:10.715Z,34.24
2018-05-13T13:31:13.195Z,34.23
2018-05-13T13:35:15.674Z,34.14
2018-05-13T13:39:18.139Z,34.70
2018-05-13T13:43:20.627Z,34.39
2018-05-13T13:47:23.143Z,34.36
2018-05-13T13:51:25.618Z,34.49
2018-05-13T13:55:28.103Z,34.32
2018-05-13T13:59:30.660Z,34.44
2018-05-13T14:03:33.074Z,34.56
2018-05-13T14:07:35.566Z,34.81
2018-05-13T14:11:38.053Z,34.81
2018-05-13T14:15:40.531Z,34.26
2018-05-13T14:19:43.007Z,34.31
2018-05-13T14:23:45.556Z,34.48
2018-05-13T14:27:47.987Z,34.38
2018-05-13T14:31:50.451Z,34.47
2018-05-13T14:35:52.937Z,34.75
2018-05-13T14:39:55.461Z,34.62
2018-05-13T14:43:57.904Z,34.50
2018-05-13T14:48:00.383Z,34.92
2018-05-13T14:52:02.877Z,34.43
2018-05-13T14:56:05.358Z,34.73
2018-05-13T15:00:07.839Z,34.88
2018-05-13T15:04:10.298Z,34.61
2018-05-13T15:08:12.805Z,35.34
2018-05-13T15:12:15.264Z,34.94
2018-05-13T15:16:17.770Z,35.09
2018-05-13T15:20:20.260Z,35.54
2018-05-13T15:24:22.728Z,35.13
2018-05-13T15:28:25.221Z,35.14
2018-05-13T15:32:27.697Z,34.49
2018-05-13T15:36:30.156Z,34.57
2018-05-13T15:40:32.650Z,34.55
2018-05-13T15:44:35.127Z,34.75
2018-05-13T15:48:37.610Z,34.64
2018-05-13T15:52:40.073Z,34.94
2018-05-13T15:56:42.563Z,34.53
2018-05-13T16:00:45.054Z,34.73
2018-05-13T16:04:47.523Z,34.60
2018-05-13T16:08:50.370Z,34.86
2018-05-13T16:12:52.854Z,34.81
2018-05-13T16:16:55.444Z,34.12
2018-05-13T16:20:57.988Z,34.27
2018-05-13T16:25:00.573Z,34.80
2018-05-13T16:29:03.168Z,34.68
2018-05-13T16:33:05.735Z,34.32
2018-05-13T16:37:08.518Z,34.32
2018-05-13T16:41:10.992Z,34.36
2018-05-13T16:45:13.481Z,34.97
2018-05-13T16:49:15.960Z,34.76
2018-05-13T16:53:18.450Z,35.03
2018-05-13T16:57:20.932Z,35.16
2018-05-13T17:01:23.415Z,35.42
2018-05-13T17:05:25.909Z,35.76
2018-05-13T17:09:28.473Z,35.45
2018-05-13T17:13:30.884Z,35.39
2018-05-13T17:17:33.376Z,35.41
2018-05-13T17:21:35.937Z,35.59
2018-05-13T17:25:38.432Z,35.88
2018-05-13T17:29:40.889Z,35.89
2018-05-13T17:33:43.378Z,36.08
2018-05-13T17:37:45.858Z,36.14
2018-05-13T17:41:48.350Z,36.33
2018-05-13T17:45:50.840Z,36.54
2018-05-13T17:49:53.433Z,36.77
2018-05-13T17:53:55.859Z,37.03
2018-05-13T17:57:58.354Z,36.93
2018-05-13T18:02:00.900Z,37.17
2018-05-13T18:06:03.398Z,37.54
2018-05-13T18:10:05.883Z,37.71
2018-05-13T18:14:08.399Z,37.71
2018-05-13T18:18:10.883Z,38.36
2018-05-13T18:22:13.364Z,38.59
2018-05-13T18:26:15.866Z,38.78
2018-05-13T18:30:18.360Z,39.01
2018-05-13T18:34:20.868Z,39.38
2018-05-13T18:38:23.350Z,39.70
2018-05-13T18:42:25.854Z,39.91
2018-05-13T18:46:28.317Z,40.06
2018-05-13T18:50:30.804Z,40.43
2018-05-13T18:54:33.380Z,40.54
2018-05-13T18:58:35.775Z,40.72
2018-05-13T19:02:38.278Z,41.00
2018-05-13T19:06:40.728Z,41.26
2018-05-13T19:10:43.220Z,41.53
2018-05-13T19:14:45.713Z,41.86
2018-05-13T19:18:48.167Z,42.21
2018-05-13T19:22:50.721Z,42.06
2018-05-13T19:26:53.184Z,42.08
2018-05-13T19:30:56.685Z,42.03
2018-05-13T19:34:59.138Z,42.57
2018-05-13T19:39:01.628Z,42.95
2018-05-13T19:43:04.212Z,43.28
2018-05-13T19:47:06.757Z,43.59
2018-05-13T19:51:09.216Z,44.15
2018-05-13T19:55:11.697Z,44.63
2018-05-13T19:59:14.186Z,44.67
2018-05-13T20:03:18.788Z,44.54
2018-05-13T20:07:22.102Z,44.73
2018-05-13T20:11:25.504Z,44.94
2018-05-13T20:15:28.095Z,45.32
2018-05-13T20:19:31.415Z,45.45
2018-05-13T20:23:33.891Z,46.02
2018-05-13T20:27:37.332Z,46.37
2018-05-13T20:31:59.528Z,46.45
2018-05-13T20:36:02.078Z,46.30
2018-05-13T20:40:04.545Z,46.80
2018-05-13T20:44:08.045Z,47.11
2018-05-13T20:48:10.559Z,47.79
2018-05-13T20:52:13.160Z,48.26
2018-05-13T20:56:16.660Z,48.48
2018-05-13T21:00:21.115Z,48.90
2018-05-13T21:04:29.118Z,49.47
2018-05-13T21:08:31.609Z,49.81
2018-05-13T21:12:36.039Z,49.35
2018-05-13T21:16:38.549Z,49.48
2018-05-13T21:20:42.044Z,49.90
2018-05-13T21:24:46.495Z,50.44
2018-05-13T21:28:48.995Z,50.83
2018-05-13T21:32:51.469Z,50.94
2018-05-13T21:36:54.737Z,50.90
2018-05-13T21:41:01.140Z,50.90
2018-05-13T21:45:04.651Z,50.96
2018-05-13T21:49:07.175Z,51.05
2018-05-13T21:53:10.657Z,51.39
2018-05-13T21:57:15.136Z,51.61
2018-05-13T22:01:17.612Z,51.66
2018-05-13T22:05:25.529Z,51.79
2018-05-13T22:09:32.332Z,52.02
2018-05-13T22:13:36.834Z,52.46
2018-05-13T22:17:39.328Z,52.94
2018-05-13T22:21:41.827Z,53.01
2018-05-13T22:25:44.395Z,53.18
2018-05-13T22:29:55.488Z,53.39
2018-05-13T22:33:57.987Z,53.59
2018-05-13T22:38:01.424Z,53.74
2018-05-13T22:42:07.760Z,54.31
2018-05-13T22:46:16.201Z,54.84
2018-05-13T22:50:18.706Z,55.20
2018-05-13T22:54:21.201Z,55.28
2018-05-13T22:58:23.679Z,55.44
2018-05-13T23:02:28.164Z,55.45
2018-05-13T23:06:31.583Z,55.64
2018-05-13T23:10:40.220Z,55.83
2018-05-13T23:14:42.726Z,55.69
2018-05-13T23:18:47.146Z,55.83
2018-05-13T23:22:51.646Z,55.72
2018-05-13T23:26:54.150Z,55.61
2018-05-13T23:30:58.678Z,55.74
2018-05-13T23:35:08.896Z,55.99
2018-05-13T23:39:13.372Z,56.11
2018-05-13T23:43:16.899Z,56.02
2018-05-13T23:47:19.381Z,56.10
2018-05-13T23:51:21.873Z,55.68
2018-05-13T23:55:24.391Z,55.76
2018-05-13T23:59:26.861Z,56.14
